Time;durP1;ratioP1;P1;durP2;ratioP2;P2;SDS_P1;SDS_P2;PMS_P1;PMS_P2;Temp;Humidity;BMP_temperature;BMP_pressure;BME280_temperature;BME280_humidity;BME280_pressure;Samples;Min_cycle;Max_cycle;Signal;HPM_P1;HPM_P2
2021/12/10 00:00:43;;;;;;;4.95;1.30;;;2.10;99.90;;;;;;5087031;28;20197;-69
2021/12/10 00:03:23;;;;;;;3.08;1.23;;;2.00;99.90;;;;;;5085736;28;20733;-69
2021/12/10 00:06:02;;;;;;;1.00;0.90;;;1.90;99.90;;;;;;5088439;28;20735;-70
2021/12/10 00:08:32;;;;;;;4.55;1.10;;;1.90;99.90;;;;;;5083635;28;20195;-68
2021/12/10 00:11:00;;;;;;;3.30;1.13;;;1.90;99.90;;;;;;5086872;28;20184;-68
2021/12/10 00:13:26;;;;;;;2.45;1.13;;;1.80;99.90;;;;;;5088940;28;20952;-68
2021/12/10 00:15:55;;;;;;;4.03;1.05;;;1.80;99.90;;;;;;5088895;28;20229;-69
2021/12/10 00:18:24;;;;;;;10.15;1.58;;;1.80;99.90;;;;;;5084817;28;20188;-69
2021/12/10 00:20:57;;;;;;;4.72;1.60;;;1.80;99.90;;;;;;5083691;28;20568;-69
2021/12/10 00:23:23;;;;;;;3.92;0.93;;;1.60;99.90;;;;;;5085210;28;20185;-70
2021/12/10 00:25:51;;;;;;;6.07;1.52;;;1.60;99.90;;;;;;5088578;28;20179;-70
2021/12/10 00:28:22;;;;;;;2.05;0.85;;;1.60;99.90;;;;;;5087452;28;20179;-68
2021/12/10 00:31:04;;;;;;;2.78;1.20;;;1.70;99.90;;;;;;5085197;28;20172;-71
2021/12/10 00:33:39;;;;;;;5.78;1.42;;;1.80;99.90;;;;;;5086257;28;20185;-71
2021/12/10 00:36:06;;;;;;;3.53;0.70;;;1.70;99.90;;;;;;5087286;28;20187;-68
2021/12/10 00:38:33;;;;;;;61.90;23.42;;;1.70;99.90;;;;;;5088621;28;20210;-71
2021/12/10 00:40:59;;;;;;;1.85;1.40;;;1.70;99.90;;;;;;5088334;28;20711;-70
2021/12/10 00:43:25;;;;;;;1.80;1.10;;;1.70;99.90;;;;;;5088334;28;20260;-71
2021/12/10 00:45:51;;;;;;;2.43;0.90;;;1.60;99.90;;;;;;5087058;28;20278;-68
2021/12/10 00:48:17;;;;;;;3.17;1.05;;;1.60;99.90;;;;;;5088218;28;20228;-70
2021/12/10 00:50:48;;;;;;;3.30;0.90;;;1.60;99.90;;;;;;5087148;28;20179;-71
2021/12/10 00:53:15;;;;;;;11.27;1.65;;;1.60;99.90;;;;;;5083759;28;20174;-71
2021/12/10 00:55:41;;;;;;;4.53;1.20;;;1.50;99.90;;;;;;5088292;28;20197;-73
2021/12/10 00:58:07;;;;;;;3.27;0.90;;;1.50;99.90;;;;;;5086333;28;21160;-70
2021/12/10 01:00:41;;;;;;;2.50;1.20;;;1.40;99.90;;;;;;5085504;28;20528;-69
2021/12/10 01:03:10;;;;;;;3.65;1.00;;;1.50;99.90;;;;;;5084981;28;20284;-70
2021/12/10 01:05:38;;;;;;;2.47;0.90;;;1.40;99.90;;;;;;5084334;28;20244;-70
2021/12/10 01:08:05;;;;;;;2.88;0.90;;;1.40;99.90;;;;;;5083990;28;20256;-69
2021/12/10 01:10:41;;;;;;;1.52;1.20;;;1.30;99.90;;;;;;5086355;28;20190;-70
2021/12/10 01:13:11;;;;;;;2.17;1.20;;;1.20;99.90;;;;;;5086175;28;20182;-68
2021/12/10 01:24:52;;;;;;;6.15;0.95;;;1.20;99.90;;;;;;5084750;28;20672;-69
2021/12/10 01:27:13;;;;;;;5.85;1.27;;;1.20;99.90;;;;;;5085187;28;20198;-68
2021/12/10 01:29:44;;;;;;;6.43;1.10;;;1.10;99.90;;;;;;5083659;28;20178;-70
2021/12/10 01:32:15;;;;;;;2.88;1.05;;;1.10;99.90;;;;;;5083753;28;20191;-69
2021/12/10 01:34:41;;;;;;;3.28;1.45;;;1.00;99.90;;;;;;5083720;28;20202;-69
2021/12/10 01:37:08;;;;;;;2.88;1.00;;;1.00;99.90;;;;;;5084938;28;20189;-69
2021/12/10 01:39:38;;;;;;;7.18;1.30;;;0.90;99.90;;;;;;5086049;28;20242;-69
2021/12/10 01:42:20;;;;;;;2.67;1.83;;;0.90;99.90;;;;;;5087148;28;20227;-69
2021/12/10 01:44:51;;;;;;;33.35;3.95;;;0.80;99.90;;;;;;5084683;28;20228;-70
2021/12/10 01:47:22;;;;;;;8.80;2.38;;;0.70;99.90;;;;;;5087191;28;20556;-67
2021/12/10 01:49:48;;;;;;;3.38;1.80;;;0.60;99.90;;;;;;5087233;28;21019;-69
2021/12/10 01:52:15;;;;;;;3.58;1.80;;;0.60;99.90;;;;;;5085198;28;20216;-70
2021/12/10 01:54:45;;;;;;;4.97;1.52;;;0.60;99.90;;;;;;5085594;28;20656;-67
2021/12/10 01:57:14;;;;;;;2.40;1.40;;;0.50;99.90;;;;;;5086799;28;20627;-72
2021/12/10 01:59:41;;;;;;;9.02;2.33;;;0.50;99.90;;;;;;5087081;28;20304;-69
2021/12/10 02:02:14;;;;;;;3.85;1.77;;;0.40;99.90;;;;;;5086816;28;20210;-70
2021/12/10 02:04:43;;;;;;;8.55;2.40;;;0.40;99.90;;;;;;5086871;28;20216;-69
2021/12/10 02:07:11;;;;;;;3.42;1.90;;;0.40;99.90;;;;;;5084284;28;20222;-68
2021/12/10 02:09:37;;;;;;;2.90;2.00;;;0.30;99.90;;;;;;5085204;28;20937;-70
2021/12/10 02:12:04;;;;;;;2.50;2.05;;;0.30;99.90;;;;;;5085434;28;20236;-69
2021/12/10 02:14:30;;;;;;;4.90;2.25;;;0.30;99.90;;;;;;5065089;28;20635;-68
2021/12/10 02:16:58;;;;;;;4.28;1.75;;;0.30;99.90;;;;;;5085347;28;20186;-66
2021/12/10 02:19:24;;;;;;;3.42;2.50;;;0.30;99.90;;;;;;5085827;28;20202;-68
2021/12/10 02:21:50;;;;;;;7.07;2.63;;;0.20;99.90;;;;;;5088196;28;20224;-71
2021/12/10 02:24:17;;;;;;;2.97;2.25;;;0.20;99.90;;;;;;5091088;28;20210;-68
2021/12/10 02:26:51;;;;;;;6.38;1.90;;;0.20;99.90;;;;;;5089780;28;20666;-69
2021/12/10 02:29:21;;;;;;;2.58;1.92;;;0.20;99.90;;;;;;5090955;28;20198;-69
2021/12/10 02:31:47;;;;;;;3.25;2.40;;;0.10;99.90;;;;;;5091340;28;20180;-70
2021/12/10 02:34:13;;;;;;;8.27;2.60;;;0.20;99.90;;;;;;5091073;28;20281;-69
2021/12/10 02:36:42;;;;;;;5.63;2.40;;;0.20;99.90;;;;;;5089320;28;20268;-69
2021/12/10 02:39:09;;;;;;;3.40;2.67;;;0.10;99.90;;;;;;5072848;28;20798;-67
2021/12/10 02:41:35;;;;;;;6.95;3.05;;;0.20;99.90;;;;;;5091036;28;20692;-68
2021/12/10 02:44:03;;;;;;;5.32;2.45;;;0.20;99.90;;;;;;5090927;28;20246;-68
2021/12/10 02:46:29;;;;;;;7.00;3.40;;;0.20;99.90;;;;;;5090993;28;20638;-68
2021/12/10 02:48:55;;;;;;;3.97;3.20;;;0.10;99.90;;;;;;5090894;28;20182;-67
2021/12/10 02:51:22;;;;;;;5.80;3.42;;;0.10;99.90;;;;;;5090729;28;20185;-68
2021/12/10 02:53:47;;;;;;;7.10;3.20;;;0.30;99.90;;;;;;5090775;28;20229;-69
2021/12/10 02:56:17;;;;;;;7.50;3.20;;;0.10;99.90;;;;;;5090574;28;20179;-68
2021/12/10 02:58:44;;;;;;;9.82;3.10;;;0.10;99.90;;;;;;5090954;28;20810;-69
2021/12/10 03:01:32;;;;;;;13.23;3.60;;;0.20;99.90;;;;;;5090396;28;20177;-69
2021/12/10 03:03:59;;;;;;;5.55;2.63;;;0.20;99.90;;;;;;5087511;28;20259;-68
2021/12/10 03:06:25;;;;;;;8.63;3.00;;;0.20;99.90;;;;;;5088608;28;20210;-69
2021/12/10 03:08:52;;;;;;;9.30;2.65;;;0.20;99.90;;;;;;5090545;28;20552;-69
2021/12/10 03:11:25;;;;;;;5.80;3.08;;;0.30;99.90;;;;;;5089206;28;20270;-70
2021/12/10 03:13:51;;;;;;;6.20;3.33;;;0.30;99.90;;;;;;5085559;28;20606;-69
2021/12/10 03:16:18;;;;;;;10.82;3.92;;;0.20;99.90;;;;;;5088964;28;20243;-70
2021/12/10 03:18:44;;;;;;;6.55;3.60;;;0.20;99.90;;;;;;5071900;28;20198;-71
2021/12/10 03:21:10;;;;;;;3.87;3.30;;;0.20;99.90;;;;;;5088639;28;20193;-70
2021/12/10 03:23:43;;;;;;;9.55;4.85;;;0.20;99.90;;;;;;5089919;28;20199;-71
2021/12/10 03:26:14;;;;;;;8.98;3.92;;;0.20;99.90;;;;;;5089775;28;20186;-72
2021/12/10 03:28:41;;;;;;;6.70;3.80;;;0.20;99.90;;;;;;5088475;28;20293;-71
2021/12/10 03:31:08;;;;;;;4.15;3.75;;;0.30;99.90;;;;;;5090022;28;20183;-70
2021/12/10 03:33:34;;;;;;;5.75;3.97;;;0.30;99.90;;;;;;5088170;28;20556;-70
2021/12/10 03:36:00;;;;;;;10.13;4.43;;;0.30;99.90;;;;;;5090038;28;20185;-71
2021/12/10 03:38:27;;;;;;;7.30;4.28;;;0.30;99.90;;;;;;5090365;28;20828;-72
2021/12/10 03:40:53;;;;;;;13.40;5.15;;;0.30;99.90;;;;;;5089830;28;20182;-71
2021/12/10 03:43:21;;;;;;;4.78;3.90;;;0.30;99.90;;;;;;5088391;28;20194;-72
2021/12/10 03:45:50;;;;;;;6.30;4.75;;;0.30;99.90;;;;;;5089504;28;20206;-67
2021/12/10 03:48:23;;;;;;;6.97;4.35;;;0.30;99.90;;;;;;5089809;28;20803;-71
2021/12/10 03:50:50;;;;;;;6.15;3.75;;;0.30;99.90;;;;;;5087847;28;20179;-70
2021/12/10 03:53:17;;;;;;;6.82;4.20;;;0.30;99.90;;;;;;5088039;28;20197;-70
2021/12/10 03:55:43;;;;;;;12.60;3.85;;;0.30;99.90;;;;;;5087522;28;20316;-70
2021/12/10 03:58:10;;;;;;;6.55;4.35;;;0.30;99.90;;;;;;5087866;28;20295;-69
2021/12/10 04:00:40;;;;;;;10.30;4.53;;;0.40;99.90;;;;;;5089402;28;20197;-70
2021/12/10 04:03:07;;;;;;;6.88;4.40;;;0.40;99.90;;;;;;5087927;28;20210;-71
2021/12/10 04:05:33;;;;;;;9.57;4.80;;;0.40;99.90;;;;;;5088519;28;20214;-70
2021/12/10 04:07:59;;;;;;;8.77;5.00;;;0.40;99.90;;;;;;5089148;28;20191;-71
2021/12/10 04:10:25;;;;;;;8.47;5.87;;;0.40;99.90;;;;;;5089145;28;20174;-68
2021/12/10 04:12:51;;;;;;;7.20;4.63;;;0.50;99.90;;;;;;5088938;28;20425;-72
2021/12/10 04:15:21;;;;;;;25.63;5.60;;;0.50;99.90;;;;;;5089223;28;20534;-71
2021/12/10 04:17:49;;;;;;;12.77;4.50;;;0.50;99.90;;;;;;5087390;28;20190;-71
2021/12/10 04:20:15;;;;;;;9.35;5.00;;;0.50;99.90;;;;;;5088790;28;20197;-71
2021/12/10 04:22:46;;;;;;;12.77;4.75;;;0.40;99.90;;;;;;5088903;28;20191;-70
2021/12/10 04:25:13;;;;;;;6.47;4.63;;;0.50;99.90;;;;;;5088982;28;20293;-72
2021/12/10 04:27:40;;;;;;;6.20;4.55;;;0.50;99.90;;;;;;5088557;28;20665;-72
2021/12/10 04:30:06;;;;;;;9.50;5.90;;;0.40;99.90;;;;;;5087794;28;20171;-72
2021/12/10 04:32:33;;;;;;;6.70;4.60;;;0.50;99.90;;;;;;5089055;28;20209;-69
2021/12/10 04:34:59;;;;;;;9.68;5.18;;;0.40;99.90;;;;;;5087430;28;20199;-70
2021/12/10 04:37:24;;;;;;;6.90;4.57;;;0.50;99.90;;;;;;5088652;28;20216;-69
2021/12/10 04:39:50;;;;;;;9.90;5.73;;;0.50;99.90;;;;;;5088824;28;21041;-70
2021/12/10 04:42:22;;;;;;;6.40;5.50;;;0.50;99.90;;;;;;5089047;28;20182;-71
2021/12/10 04:44:53;;;;;;;13.10;5.82;;;0.50;99.90;;;;;;5088089;28;21122;-69
2021/12/10 04:47:19;;;;;;;10.52;6.10;;;0.50;99.90;;;;;;5086819;28;20244;-69
2021/12/10 04:49:44;;;;;;;11.90;5.70;;;0.50;99.90;;;;;;5088123;28;20599;-71
2021/12/10 04:52:10;;;;;;;8.53;5.93;;;0.50;99.90;;;;;;5088294;28;20183;-71
2021/12/10 04:54:36;;;;;;;7.17;4.97;;;0.50;99.90;;;;;;5088163;28;20205;-71
2021/12/10 04:57:04;;;;;;;16.00;6.10;;;0.40;99.90;;;;;;5088233;28;20243;-70
2021/12/10 04:59:32;;;;;;;8.25;6.32;;;0.50;99.90;;;;;;5084152;28;20933;-70
2021/12/10 05:02:00;;;;;;;11.23;6.00;;;0.50;99.90;;;;;;5083947;28;20287;-70
2021/12/10 05:04:28;;;;;;;264.20;98.82;;;0.40;99.90;;;;;;5087451;28;20212;-71
2021/12/10 05:06:54;;;;;;;19.35;8.90;;;0.40;99.90;;;;;;5087302;28;20592;-73
2021/12/10 05:09:22;;;;;;;12.48;6.18;;;0.40;99.90;;;;;;5086485;28;20699;-71
2021/12/10 05:11:49;;;;;;;8.68;6.32;;;0.40;99.90;;;;;;5087838;28;20184;-70
2021/12/10 05:14:16;;;;;;;11.63;6.10;;;0.40;99.90;;;;;;5088134;28;20227;-70
2021/12/10 05:16:44;;;;;;;9.60;6.07;;;0.50;99.90;;;;;;5087604;28;20186;-70
2021/12/10 05:19:12;;;;;;;8.20;5.30;;;0.40;99.90;;;;;;5086505;28;20207;-71
2021/12/10 05:21:40;;;;;;;9.05;6.07;;;0.20;99.90;;;;;;5086412;28;20186;-73
2021/12/10 05:24:06;;;;;;;11.85;5.68;;;0.40;99.90;;;;;;5063163;28;20228;-70
2021/12/10 05:26:33;;;;;;;8.40;5.80;;;0.40;99.90;;;;;;5083553;28;20238;-73
2021/12/10 05:28:59;;;;;;;7.00;4.97;;;0.40;99.90;;;;;;5084492;28;20194;-72
2021/12/10 05:31:25;;;;;;;9.77;6.63;;;0.40;99.90;;;;;;5085565;28;20190;-72
2021/12/10 05:33:51;;;;;;;8.50;5.83;;;0.40;99.90;;;;;;5084293;28;20944;-73
2021/12/10 05:36:17;;;;;;;7.13;4.90;;;0.40;99.90;;;;;;5085415;28;20190;-72
2021/12/10 05:38:43;;;;;;;10.57;5.38;;;0.40;99.90;;;;;;5085650;28;20697;-72
2021/12/10 05:41:10;;;;;;;7.27;4.10;;;0.50;99.90;;;;;;5084231;28;20268;-72
2021/12/10 05:43:38;;;;;;;6.82;4.60;;;0.50;99.90;;;;;;5083974;28;20570;-72
2021/12/10 05:46:05;;;;;;;6.35;4.80;;;0.50;99.90;;;;;;5084417;28;20245;-72
2021/12/10 05:48:31;;;;;;;7.20;4.88;;;0.50;99.90;;;;;;5086068;28;20195;-72
2021/12/10 05:50:57;;;;;;;10.23;5.00;;;0.50;99.90;;;;;;5067891;28;20199;-71
2021/12/10 05:53:23;;;;;;;11.32;3.97;;;0.40;99.90;;;;;;5085908;28;20269;-70
2021/12/10 05:55:49;;;;;;;5.72;4.63;;;0.50;99.90;;;;;;5084502;28;20199;-71
2021/12/10 05:58:15;;;;;;;4.97;3.83;;;0.50;99.90;;;;;;5085412;28;20192;-69
2021/12/10 06:00:45;;;;;;;4.57;3.60;;;0.50;99.90;;;;;;5083997;28;20462;-72
2021/12/10 06:03:12;;;;;;;6.47;4.15;;;0.60;99.90;;;;;;5083961;28;20972;-73
2021/12/10 06:05:39;;;;;;;7.07;5.25;;;0.50;99.90;;;;;;5084723;28;20215;-72
2021/12/10 06:08:05;;;;;;;5.97;3.95;;;0.50;99.90;;;;;;5067199;28;20214;-73
2021/12/10 06:10:32;;;;;;;8.68;5.20;;;0.50;99.90;;;;;;5083875;28;20198;-71
2021/12/10 06:12:57;;;;;;;7.97;3.80;;;0.50;99.90;;;;;;5085288;28;20658;-71
2021/12/10 06:15:25;;;;;;;6.20;3.40;;;0.50;99.90;;;;;;5083570;28;20190;-70
2021/12/10 06:17:50;;;;;;;7.53;3.40;;;0.60;99.90;;;;;;5083840;28;20195;-72
2021/12/10 06:20:24;;;;;;;3.50;3.20;;;0.60;99.90;;;;;;5085494;28;20278;-70
2021/12/10 06:22:50;;;;;;;4.38;3.17;;;0.60;99.90;;;;;;5084542;28;20478;-69
2021/12/10 06:25:16;;;;;;;3.47;2.50;;;0.60;99.90;;;;;;5084202;28;20213;-69
2021/12/10 06:27:44;;;;;;;5.13;1.52;;;0.70;99.90;;;;;;5066867;28;20427;-71
2021/12/10 06:30:21;;;;;;;2.90;2.60;;;0.80;99.90;;;;;;5085247;28;20190;-70
2021/12/10 06:32:48;;;;;;;3.92;2.88;;;0.90;99.90;;;;;;5084820;28;20188;-71
2021/12/10 06:35:15;;;;;;;3.03;2.55;;;0.80;99.90;;;;;;5083624;28;20213;-72
2021/12/10 06:37:42;;;;;;;4.75;2.60;;;0.80;99.90;;;;;;5084644;28;20217;-72
2021/12/10 06:40:12;;;;;;;6.05;3.00;;;0.70;99.90;;;;;;5085072;28;20245;-71
2021/12/10 06:42:38;;;;;;;2.30;2.05;;;0.70;99.90;;;;;;5083514;28;20207;-71
2021/12/10 06:45:07;;;;;;;2.00;1.73;;;0.70;99.90;;;;;;5084890;28;20220;-71
2021/12/10 06:47:33;;;;;;;6.55;1.35;;;0.70;99.90;;;;;;5083336;28;20287;-70
2021/12/10 06:49:59;;;;;;;4.30;1.95;;;0.80;99.90;;;;;;5085088;28;20194;-72
2021/12/10 06:52:25;;;;;;;1.80;1.70;;;0.80;99.90;;;;;;5083089;28;20998;-70
2021/12/10 06:54:51;;;;;;;1.43;1.33;;;0.80;99.90;;;;;;5083136;28;20205;-71
2021/12/10 06:57:17;;;;;;;2.25;1.92;;;0.80;99.90;;;;;;5084490;28;20425;-71
2021/12/10 06:59:43;;;;;;;2.15;1.50;;;0.80;99.90;;;;;;5083700;28;20221;-70
2021/12/10 07:02:11;;;;;;;3.65;1.80;;;0.80;99.90;;;;;;5082605;28;20656;-73
2021/12/10 07:04:40;;;;;;;2.00;1.83;;;0.80;99.90;;;;;;5084196;28;21015;-72
2021/12/10 07:07:10;;;;;;;1.50;1.38;;;0.80;99.90;;;;;;5082845;28;20221;-70
2021/12/10 07:09:37;;;;;;;1.73;1.63;;;0.80;99.90;;;;;;5084479;28;21005;-73
2021/12/10 07:12:04;;;;;;;5.28;3.17;;;0.80;99.90;;;;;;5086186;28;20194;-70
2021/12/10 07:14:30;;;;;;;3.60;1.73;;;0.70;99.90;;;;;;5086374;28;20191;-73
2021/12/10 07:16:56;;;;;;;1.88;1.70;;;0.70;99.90;;;;;;5087434;28;20669;-73
2021/12/10 07:19:22;;;;;;;3.27;2.00;;;0.70;99.90;;;;;;5087657;28;20190;-72
2021/12/10 07:21:48;;;;;;;2.90;2.00;;;0.70;99.90;;;;;;5086021;28;20525;-72
2021/12/10 07:24:16;;;;;;;3.33;2.00;;;0.70;99.90;;;;;;5085967;28;20305;-71
2021/12/10 07:26:43;;;;;;;2.88;2.15;;;0.70;99.90;;;;;;5085836;28;20231;-70
2021/12/10 07:29:09;;;;;;;3.65;2.92;;;0.60;99.90;;;;;;5087058;28;20826;-73
2021/12/10 07:31:37;;;;;;;5.65;2.70;;;0.60;99.90;;;;;;5087247;28;20230;-70
2021/12/10 07:34:04;;;;;;;2.80;2.30;;;0.70;99.90;;;;;;5087413;28;20190;-73
2021/12/10 07:36:30;;;;;;;1.10;1.00;;;0.70;99.90;;;;;;5086308;28;20553;-70
2021/12/10 07:38:56;;;;;;;1.42;1.33;;;0.90;99.90;;;;;;5087345;28;20285;-70
2021/12/10 07:41:23;;;;;;;2.30;1.30;;;0.90;99.90;;;;;;5087284;28;20306;-71
2021/12/10 07:43:48;;;;;;;1.30;1.20;;;1.00;99.90;;;;;;5086982;28;20238;-74
2021/12/10 07:46:15;;;;;;;1.43;1.07;;;1.10;99.90;;;;;;5084853;28;20947;-73
2021/12/10 07:48:42;;;;;;;1.90;1.15;;;1.10;99.90;;;;;;5087186;28;20266;-72
2021/12/10 07:51:20;;;;;;;1.88;1.08;;;1.10;99.30;;;;;;5086342;28;20192;-76
2021/12/10 07:53:45;;;;;;;2.40;1.42;;;1.10;99.90;;;;;;5085595;28;20195;-72
2021/12/10 07:56:13;;;;;;;2.87;1.27;;;1.20;99.80;;;;;;5085456;28;20196;-75
2021/12/10 07:58:42;;;;;;;1.63;1.20;;;1.20;99.40;;;;;;5087289;28;20194;-73
2021/12/10 08:01:12;;;;;;;2.10;1.10;;;1.30;99.20;;;;;;5085073;28;20240;-73
2021/12/10 08:03:38;;;;;;;2.40;1.08;;;1.50;98.50;;;;;;5084801;28;20225;-73
2021/12/10 08:06:04;;;;;;;2.00;0.83;;;1.40;97.80;;;;;;5084210;28;20220;-69
2021/12/10 08:08:30;;;;;;;0.80;0.70;;;1.40;97.70;;;;;;5086370;28;20465;-73
2021/12/10 08:10:55;;;;;;;0.90;0.60;;;1.50;97.90;;;;;;5086430;28;20320;-74
2021/12/10 08:13:22;;;;;;;2.30;1.17;;;1.50;97.10;;;;;;5067909;28;20192;-72
2021/12/10 08:15:50;;;;;;;1.73;0.90;;;1.50;97.20;;;;;;5084649;28;20819;-73
2021/12/10 08:18:16;;;;;;;0.85;0.80;;;1.60;96.90;;;;;;5083864;28;20334;-73
2021/12/10 08:20:41;;;;;;;1.77;0.70;;;1.60;96.30;;;;;;5084455;28;20741;-73
2021/12/10 08:23:07;;;;;;;0.97;0.80;;;1.60;95.90;;;;;;5085892;28;20436;-70
2021/12/10 08:25:33;;;;;;;0.77;0.60;;;1.70;96.60;;;;;;5085868;28;20225;-69
2021/12/10 08:28:00;;;;;;;0.80;0.70;;;1.70;97.40;;;;;;5085646;28;20431;-72
2021/12/10 08:30:27;;;;;;;1.15;0.60;;;1.70;96.60;;;;;;5086322;28;20212;-73
2021/12/10 08:32:55;;;;;;;1.00;0.63;;;1.80;96.70;;;;;;5085820;28;20200;-73
2021/12/10 08:35:27;;;;;;;1.02;0.70;;;1.80;96.20;;;;;;5085234;28;20212;-72
2021/12/10 08:37:54;;;;;;;0.75;0.60;;;1.90;96.10;;;;;;5083586;28;20221;-75
2021/12/10 08:40:24;;;;;;;3.17;0.60;;;2.00;96.10;;;;;;5086050;28;20265;-74
2021/12/10 08:42:50;;;;;;;0.80;0.80;;;2.00;96.10;;;;;;5083127;28;20198;-71
2021/12/10 08:45:19;;;;;;;4.05;0.80;;;2.00;95.70;;;;;;5084851;28;20214;-73
2021/12/10 08:47:46;;;;;;;1.10;1.00;;;2.10;95.30;;;;;;5085296;28;20187;-71
2021/12/10 08:50:12;;;;;;;1.58;0.90;;;2.10;94.90;;;;;;5085651;28;20273;-73
2021/12/10 08:52:37;;;;;;;0.50;0.40;;;2.10;94.90;;;;;;5084499;28;20201;-70
2021/12/10 08:55:05;;;;;;;1.37;0.50;;;2.10;94.60;;;;;;5085563;28;20528;-72
2021/12/10 08:57:31;;;;;;;1.20;0.60;;;2.10;95.00;;;;;;5085624;28;20214;-72
2021/12/10 08:59:58;;;;;;;0.80;0.80;;;2.10;94.60;;;;;;5085508;28;20229;-72
2021/12/10 09:02:24;;;;;;;1.80;0.60;;;2.20;95.20;;;;;;5085981;28;20213;-72
2021/12/10 09:04:50;;;;;;;1.80;0.93;;;2.20;94.60;;;;;;5085512;28;20722;-70
2021/12/10 09:07:18;;;;;;;0.60;0.57;;;2.20;95.40;;;;;;5083710;28;20521;-73
2021/12/10 09:09:46;;;;;;;6.15;4.00;;;2.20;94.90;;;;;;5066933;28;20184;-73
2021/12/10 09:12:24;;;;;;;1.10;1.00;;;2.20;95.00;;;;;;5085278;28;20211;-74
2021/12/10 09:14:53;;;;;;;1.30;0.63;;;2.20;94.40;;;;;;5083604;28;20191;-74
2021/12/10 09:17:23;;;;;;;3.90;0.65;;;2.30;94.30;;;;;;5085476;28;20781;-73
2021/12/10 09:19:51;;;;;;;1.92;0.70;;;2.30;94.40;;;;;;5085313;28;20192;-71
2021/12/10 09:22:17;;;;;;;0.60;0.60;;;2.30;95.00;;;;;;5085322;28;20200;-71
2021/12/10 09:24:44;;;;;;;2.08;0.50;;;2.30;94.90;;;;;;5085017;28;20625;-71
2021/12/10 09:27:12;;;;;;;2.03;0.70;;;2.40;94.10;;;;;;5083497;28;20193;-72
2021/12/10 09:29:40;;;;;;;1.65;0.90;;;2.30;94.20;;;;;;5084883;28;20463;-73
2021/12/10 09:32:09;;;;;;;1.63;0.80;;;2.30;94.70;;;;;;5082611;28;20199;-74
2021/12/10 09:34:35;;;;;;;0.60;0.50;;;2.30;93.80;;;;;;5083306;28;20191;-70
2021/12/10 09:37:02;;;;;;;0.90;0.77;;;2.30;94.80;;;;;;5082517;28;20804;-73
2021/12/10 09:39:30;;;;;;;1.38;0.55;;;2.40;94.50;;;;;;5082803;28;20845;-73
2021/12/10 09:41:56;;;;;;;1.98;0.60;;;2.30;94.40;;;;;;5084433;28;20193;-73
2021/12/10 09:44:23;;;;;;;0.88;0.52;;;2.30;93.50;;;;;;5084718;28;20203;-72
2021/12/10 09:46:49;;;;;;;1.20;1.10;;;2.40;94.30;;;;;;5082654;28;20287;-74
2021/12/10 09:49:15;;;;;;;1.13;0.60;;;2.40;94.80;;;;;;5066606;28;20300;-73
2021/12/10 09:51:45;;;;;;;0.80;0.73;;;2.30;94.20;;;;;;5082703;28;20292;-73
2021/12/10 09:54:13;;;;;;;1.00;0.70;;;2.30;94.40;;;;;;5065034;28;20227;-74
2021/12/10 09:56:43;;;;;;;2.53;1.50;;;2.30;94.40;;;;;;5084134;28;20195;-74
2021/12/10 09:59:09;;;;;;;1.90;0.80;;;2.30;94.80;;;;;;5084793;28;20555;-74
2021/12/10 10:01:41;;;;;;;2.22;1.55;;;2.30;94.60;;;;;;5083999;28;20275;-74
2021/12/10 10:04:10;;;;;;;1.95;1.35;;;2.30;95.00;;;;;;5082947;28;20310;-73
2021/12/10 10:06:40;;;;;;;1.63;0.90;;;2.40;95.40;;;;;;5083443;28;20216;-72
2021/12/10 10:09:08;;;;;;;1.10;1.00;;;2.40;95.80;;;;;;5083613;28;20183;-75
2021/12/10 10:11:34;;;;;;;1.40;0.90;;;2.40;95.10;;;;;;5049344;28;20205;-72
2021/12/10 10:14:02;;;;;;;1.35;0.70;;;2.30;95.30;;;;;;5084347;28;20191;-72
2021/12/10 10:16:29;;;;;;;3.80;1.40;;;2.30;95.00;;;;;;5082921;28;20219;-71
2021/12/10 10:18:57;;;;;;;2.90;0.82;;;2.30;95.30;;;;;;5082869;28;20823;-70
2021/12/10 10:21:29;;;;;;;1.20;0.95;;;2.30;95.60;;;;;;5083044;28;20278;-73
2021/12/10 10:23:55;;;;;;;0.80;0.80;;;2.30;96.10;;;;;;5083020;28;20194;-73
2021/12/10 10:26:31;;;;;;;1.27;0.90;;;2.30;96.50;;;;;;5084338;28;20190;-74
2021/12/10 10:29:17;;;;;;;4.60;2.10;;;2.40;96.70;;;;;;5083334;28;21071;-71
2021/12/10 10:31:51;;;;;;;0.77;0.75;;;2.40;95.50;;;;;;5084254;28;20657;-73
2021/12/10 10:34:19;;;;;;;2.40;1.05;;;2.40;95.40;;;;;;5084700;28;20678;-74
2021/12/10 10:36:45;;;;;;;3.30;1.05;;;2.40;94.10;;;;;;5082674;28;20218;-73
2021/12/10 10:39:18;;;;;;;0.98;0.70;;;2.50;94.00;;;;;;5084525;28;20197;-73
2021/12/10 10:41:48;;;;;;;1.75;0.93;;;2.50;93.90;;;;;;5084478;28;20208;-74
2021/12/10 10:44:17;;;;;;;3.17;0.82;;;2.60;94.30;;;;;;5085646;28;20220;-71
2021/12/10 10:46:44;;;;;;;1.30;1.10;;;2.70;94.90;;;;;;5069251;28;20196;-73
2021/12/10 10:49:29;;;;;;;0.82;0.82;;;2.80;94.10;;;;;;5086504;28;20202;-73
2021/12/10 10:51:56;;;;;;;1.30;1.02;;;2.80;94.80;;;;;;5087676;28;20200;-73
2021/12/10 10:54:30;;;;;;;0.70;0.70;;;2.80;93.70;;;;;;5087607;28;20797;-72
2021/12/10 10:56:56;;;;;;;1.70;0.90;;;2.90;93.20;;;;;;5087288;28;20220;-71
2021/12/10 10:59:26;;;;;;;0.70;0.70;;;3.00;92.90;;;;;;5086435;28;20199;-70
2021/12/10 11:02:05;;;;;;;1.30;0.93;;;2.80;91.40;;;;;;5087484;28;21024;-73
2021/12/10 11:04:34;;;;;;;1.25;0.90;;;2.80;91.40;;;;;;5087073;28;20370;-73
2021/12/10 11:07:20;;;;;;;0.82;0.75;;;2.80;91.40;;;;;;5086674;28;20220;-72
2021/12/10 11:10:06;;;;;;;0.90;0.70;;;3.00;93.00;;;;;;5087182;28;20240;-72
2021/12/10 11:12:38;;;;;;;0.70;0.63;;;2.90;91.70;;;;;;5085184;28;20195;-72
2021/12/10 11:15:16;;;;;;;0.85;0.75;;;2.80;92.00;;;;;;5085484;28;20645;-72
2021/12/10 11:17:48;;;;;;;1.15;0.68;;;2.60;93.00;;;;;;5086971;28;20600;-71
2021/12/10 11:20:17;;;;;;;0.82;0.82;;;2.60;93.70;;;;;;5087134;28;20184;-73
2021/12/10 11:23:05;;;;;;;1.58;0.90;;;2.40;94.40;;;;;;5085735;28;20201;-72
2021/12/10 11:25:36;;;;;;;1.92;0.80;;;2.40;95.00;;;;;;5084476;28;20878;-70
2021/12/10 11:28:09;;;;;;;1.55;0.82;;;2.40;96.30;;;;;;5086792;28;20334;-71
2021/12/10 11:30:39;;;;;;;1.50;0.90;;;2.20;97.70;;;;;;5085518;28;20200;-72
2021/12/10 11:33:09;;;;;;;3.20;1.45;;;2.20;99.10;;;;;;5085768;28;20710;-72
2021/12/10 11:35:42;;;;;;;2.38;1.17;;;2.00;99.90;;;;;;5086863;28;20195;-72
2021/12/10 11:38:17;;;;;;;1.95;1.33;;;1.70;99.90;;;;;;5086287;28;20538;-72
2021/12/10 11:40:53;;;;;;;1.83;1.40;;;1.70;99.90;;;;;;5086858;28;20221;-72
2021/12/10 11:46:04;;;;;;;1.90;1.73;;;1.40;99.90;;;;;;5086876;28;20213;-71
2021/12/10 11:48:33;;;;;;;5.75;1.10;;;1.50;99.90;;;;;;5086250;28;20526;-71
2021/12/10 11:51:21;;;;;;;3.13;1.10;;;1.40;99.90;;;;;;5084579;28;20662;-72
2021/12/10 11:53:52;;;;;;;1.45;1.20;;;1.20;99.90;;;;;;5084477;28;20192;-71
2021/12/10 11:56:28;;;;;;;2.92;1.20;;;1.20;99.90;;;;;;5086135;28;20204;-71
2021/12/10 11:59:08;;;;;;;2.58;2.03;;;1.20;99.90;;;;;;5084791;28;20192;-71
2021/12/10 12:02:03;;;;;;;1.85;1.75;;;1.40;99.90;;;;;;5086355;28;20195;-72
2021/12/10 12:04:31;;;;;;;5.65;1.83;;;1.50;99.90;;;;;;5086105;28;20928;-73
2021/12/10 12:07:22;;;;;;;2.03;1.80;;;1.60;99.90;;;;;;5085464;28;20940;-72
2021/12/10 12:09:52;;;;;;;2.60;1.27;;;1.60;99.90;;;;;;5086066;28;20213;-72
2021/12/10 12:12:22;;;;;;;1.23;1.13;;;1.50;99.90;;;;;;5086222;28;20662;-73
2021/12/10 12:14:52;;;;;;;1.30;1.20;;;1.50;99.90;;;;;;5086498;28;20193;-71
2021/12/10 12:17:33;;;;;;;2.83;1.00;;;1.50;99.90;;;;;;5086138;28;20204;-72
2021/12/10 12:20:00;;;;;;;2.05;1.85;;;1.40;99.90;;;;;;5086359;28;20205;-72
2021/12/10 12:25:29;;;;;;;2.63;1.40;;;1.60;99.90;;;;;;5085157;28;20293;-71
2021/12/10 12:28:05;;;;;;;1.35;0.90;;;1.70;99.90;;;;;;5084536;28;20919;-71
2021/12/10 12:30:31;;;;;;;3.30;2.03;;;1.60;99.90;;;;;;5086049;28;20214;-71
2021/12/10 12:32:58;;;;;;;3.30;1.60;;;1.60;99.90;;;;;;5085954;28;20298;-68
2021/12/10 12:35:31;;;;;;;2.05;1.35;;;1.60;99.90;;;;;;5085729;28;20247;-73
2021/12/10 12:38:20;;;;;;;1.20;1.10;;;1.60;99.90;;;;;;5084265;28;20211;-73
2021/12/10 12:40:47;;;;;;;1.90;1.45;;;1.50;99.90;;;;;;5084251;28;20609;-74
2021/12/10 12:43:13;;;;;;;1.70;1.60;;;1.60;99.90;;;;;;5085524;28;20210;-72
2021/12/10 12:45:40;;;;;;;1.70;1.60;;;1.50;99.90;;;;;;5085358;28;20584;-73
2021/12/10 12:48:11;;;;;;;2.35;1.25;;;1.60;99.90;;;;;;5084289;28;20423;-73
2021/12/10 12:50:39;;;;;;;1.70;1.58;;;1.60;99.90;;;;;;5083686;28;20219;-73
2021/12/10 12:53:18;;;;;;;2.45;1.35;;;1.70;99.90;;;;;;5085190;28;20195;-72
2021/12/10 12:56:02;;;;;;;1.63;1.52;;;1.80;99.90;;;;;;5084106;28;20194;-72
2021/12/10 12:58:30;;;;;;;3.00;2.03;;;1.80;99.90;;;;;;5086059;28;20203;-72
2021/12/10 13:01:14;;;;;;;1.83;1.02;;;1.80;99.90;;;;;;5084214;28;20201;-69
2021/12/10 13:04:01;;;;;;;1.65;1.55;;;1.80;99.90;;;;;;5085602;28;20226;-71
2021/12/10 13:06:52;;;;;;;1.35;1.25;;;1.90;99.90;;;;;;5084210;28;20215;-71
2021/12/10 13:09:40;;;;;;;1.70;1.38;;;2.00;99.90;;;;;;5083563;28;20597;-70
2021/12/10 13:12:17;;;;;;;1.40;1.30;;;2.00;99.90;;;;;;5085334;28;20294;-72
2021/12/10 13:14:56;;;;;;;1.27;1.17;;;2.10;99.90;;;;;;5084185;28;20596;-72
2021/12/10 13:17:23;;;;;;;1.63;1.08;;;2.10;99.90;;;;;;5084952;28;20208;-72
2021/12/10 13:19:52;;;;;;;2.20;1.35;;;2.00;99.90;;;;;;5085058;28;20195;-72